This is the latest recevied weather packets stored in our database for station/object JR5YHL-13. If no packets are shown the sender has not sent any weather packets the latest 10 day(s).
| Time | Temp. | Humidity | Pressure | Rain* | Wind** | Luminosity | Snow |
|---|---|---|---|---|---|---|---|
| 1777692081 | 28.89° C | 35% | 1010.3 hPa | 0 mm | - | - | - |
| 1777691484 | 28.89° C | 36% | 1010.5 hPa | 0 mm | - | - | - |
| 1777690886 | 28.33° C | 39% | 1010.4 hPa | 0 mm | - | - | - |
| 1777690288 | 28.33° C | 35% | 1010.5 hPa | 0 mm | - | - | - |
| 1777689690 | 28.33° C | 35% | 1010.4 hPa | 0 mm | - | - | - |
| 1777689093 | 29.44° C | 34% | 1010.5 hPa | 0 mm | - | - | - |
| 1777688495 | 28.33° C | 34% | 1010.5 hPa | 0 mm | - | - | - |
| 1777687897 | 28.33° C | 35% | 1010.7 hPa | 0 mm | - | - | - |
| 1777687300 | 29.44° C | 32% | 1010.5 hPa | 0 mm | - | - | - |
| 1777686702 | 30.56° C | 25% | 1010.5 hPa | 0 mm | - | - | - |
| 1777686104 | 29.44° C | 29% | 1010.6 hPa | 0 mm | - | - | - |
| 1777685506 | 29.44° C | 29% | 1010.8 hPa | 0 mm | - | - | - |
| 1777684909 | 28.89° C | 29% | 1010.7 hPa | 0 mm | - | - | - |
| 1777684311 | 28.89° C | 32% | 1010.9 hPa | 0 mm | - | - | - |
| 1777683714 | 28.33° C | 31% | 1010.9 hPa | 0 mm | - | - | - |
| 1777683116 | 27.22° C | 34% | 1011 hPa | 0 mm | - | - | - |
| 1777682518 | 26.67° C | 36% | 1011.2 hPa | 0 mm | - | - | - |
| 1777681921 | 26.11° C | 38% | 1011.2 hPa | 0 mm | - | - | - |
| 1777681323 | 25° C | 40% | 1011.3 hPa | 0 mm | - | - | - |
| 1777680725 | 25° C | 39% | 1011.4 hPa | 0 mm | - | - | - |
| 1777680128 | 24.44° C | 40% | 1011.4 hPa | 0 mm | - | - | - |
| 1777679530 | 24.44° C | 44% | 1011.4 hPa | 0 mm | - | - | - |
| 1777678932 | 23.33° C | 48% | 1011.4 hPa | 0 mm | - | - | - |
| 1777678335 | 21.67° C | 56% | 1011.7 hPa | 0 mm | - | - | - |
| 1777677737 | 21.11° C | 58% | 1011.7 hPa | 0 mm | - | - | - |
* Rain latest hour (hover to see other rain measurements)
** Current wind speed in m/s (hover to see current wind gust speed)